Time;durP1;ratioP1;P1;durP2;ratioP2;P2;SDS_P1;SDS_P2;PMS_P1;PMS_P2;Temp;Humidity;BMP_temperature;BMP_pressure;BME280_temperature;BME280_humidity;BME280_pressure;Samples;Min_cycle;Max_cycle;Signal;HPM_P1;HPM_P2
2020/12/10 00:00:52;;;;;;;90.50;50.10;;;1.60;1.00;;;;;;5004905;28;20245;-76
2020/12/10 00:03:18;;;;;;;103.18;54.90;;;1.60;1.00;;;;;;4989228;28;20243;-76
2020/12/10 00:05:44;;;;;;;94.78;49.95;;;1.60;1.00;;;;;;5002350;28;20215;-74
2020/12/10 00:08:11;;;;;;;97.30;51.15;;;1.60;1.00;;;;;;4992181;28;20231;-75
2020/12/10 00:10:37;;;;;;;95.85;52.83;;;1.50;1.00;;;;;;5002693;28;20223;-75
2020/12/10 00:13:03;;;;;;;97.85;51.47;;;1.50;1.00;;;;;;5005876;28;20226;-74
2020/12/10 00:15:29;;;;;;;91.30;52.50;;;1.50;1.00;;;;;;4989085;28;20306;-75
2020/12/10 00:17:56;;;;;;;96.03;52.08;;;1.50;1.00;;;;;;5006953;28;20399;-75
2020/12/10 00:20:22;;;;;;;106.05;55.17;;;1.40;1.00;;;;;;4997953;28;20237;-75
2020/12/10 00:22:49;;;;;;;98.35;52.70;;;1.40;1.00;;;;;;5009153;28;20334;-74
2020/12/10 00:25:15;;;;;;;98.97;52.92;;;1.30;1.00;;;;;;5003540;28;20231;-74
2020/12/10 00:27:41;;;;;;;110.20;54.15;;;1.30;1.00;;;;;;5015273;28;20306;-74
2020/12/10 00:30:09;;;;;;;98.40;53.95;;;1.30;1.00;;;;;;5003932;28;20972;-75
2020/12/10 00:32:35;;;;;;;112.03;54.63;;;1.30;1.00;;;;;;5028060;28;20231;-76
2020/12/10 00:35:04;;;;;;;118.10;58.30;;;1.20;1.00;;;;;;4995795;28;20262;-76
2020/12/10 00:37:33;;;;;;;114.97;55.00;;;1.20;1.00;;;;;;5007367;28;20325;-75
2020/12/10 00:39:59;;;;;;;111.90;55.40;;;1.20;1.00;;;;;;4994269;28;20305;-76
2020/12/10 00:42:25;;;;;;;104.00;55.72;;;1.30;1.00;;;;;;5001144;28;20239;-76
2020/12/10 00:44:52;;;;;;;107.43;53.60;;;1.20;1.00;;;;;;4994704;28;20223;-76
2020/12/10 00:47:18;;;;;;;112.60;54.05;;;1.10;1.00;;;;;;5007968;28;20222;-75
2020/12/10 00:49:45;;;;;;;104.22;51.03;;;1.10;1.00;;;;;;4994567;28;21296;-76
2020/12/10 00:52:13;;;;;;;108.22;53.00;;;1.10;1.00;;;;;;5005746;28;20239;-76
2020/12/10 00:54:39;;;;;;;99.65;51.88;;;1.00;1.00;;;;;;5019311;28;20310;-75
2020/12/10 00:57:08;;;;;;;111.78;53.58;;;1.00;1.00;;;;;;5004713;28;20253;-75
2020/12/10 00:59:34;;;;;;;111.55;51.30;;;1.00;1.00;;;;;;5020590;28;20219;-75
2020/12/10 01:02:00;;;;;;;112.63;54.58;;;1.00;1.00;;;;;;5013071;28;20309;-74
2020/12/10 01:04:27;;;;;;;127.30;55.30;;;1.00;1.00;;;;;;5024145;28;20456;-75
2020/12/10 01:06:53;;;;;;;108.35;51.88;;;1.00;1.00;;;;;;5010105;28;20227;-74
2020/12/10 01:09:20;;;;;;;108.68;50.03;;;1.00;1.00;;;;;;5013239;28;20631;-74
2020/12/10 01:11:47;;;;;;;104.90;51.92;;;1.10;1.00;;;;;;5008376;28;20278;-73
2020/12/10 01:14:14;;;;;;;97.78;53.40;;;1.00;1.00;;;;;;5029081;28;20215;-73
2020/12/10 01:16:40;;;;;;;106.65;52.30;;;1.00;1.00;;;;;;4999486;28;20227;-74
2020/12/10 01:19:06;;;;;;;102.22;52.75;;;1.10;1.00;;;;;;5017284;28;22392;-74
2020/12/10 01:21:34;;;;;;;106.57;54.35;;;1.10;1.00;;;;;;4995637;28;20334;-75
2020/12/10 01:24:01;;;;;;;119.57;56.50;;;1.10;1.00;;;;;;5004816;28;20291;-74
2020/12/10 01:26:30;;;;;;;103.82;49.13;;;1.00;1.00;;;;;;4978139;28;20247;-74
2020/12/10 01:28:56;;;;;;;103.88;51.47;;;1.00;1.00;;;;;;4998415;28;20270;-75
2020/12/10 01:31:23;;;;;;;100.32;49.65;;;1.10;1.00;;;;;;4982218;28;20282;-75
2020/12/10 01:33:49;;;;;;;104.22;54.53;;;1.10;1.00;;;;;;5007359;28;20223;-76
2020/12/10 01:36:17;;;;;;;93.22;49.42;;;1.10;1.00;;;;;;5003416;28;20222;-76
2020/12/10 01:38:43;;;;;;;104.47;51.90;;;1.10;1.00;;;;;;4984445;28;20709;-76
2020/12/10 01:41:10;;;;;;;106.28;54.95;;;1.10;1.00;;;;;;5004093;28;20220;-75
2020/12/10 01:43:37;;;;;;;97.70;49.30;;;1.20;1.00;;;;;;4980429;28;20625;-77
2020/12/10 01:46:03;;;;;;;105.13;53.35;;;1.20;1.00;;;;;;5003011;28;20306;-76
2020/12/10 01:48:30;;;;;;;104.60;50.90;;;1.20;1.00;;;;;;4974243;28;20725;-76
2020/12/10 01:50:57;;;;;;;101.50;50.95;;;1.30;1.00;;;;;;5004719;28;20279;-74
2020/12/10 01:53:23;;;;;;;116.47;51.92;;;1.30;1.00;;;;;;4972245;28;20759;-75
2020/12/10 01:55:49;;;;;;;105.53;52.70;;;1.20;1.00;;;;;;5003259;28;20341;-75
2020/12/10 01:58:15;;;;;;;102.75;53.15;;;1.20;1.00;;;;;;4979278;28;21138;-76
2020/12/10 02:00:42;;;;;;;107.75;50.17;;;1.20;1.00;;;;;;4999426;28;20225;-75
2020/12/10 02:03:08;;;;;;;101.60;52.00;;;1.10;1.00;;;;;;4985477;28;20238;-75
2020/12/10 02:05:41;;;;;;;108.47;52.08;;;1.10;1.00;;;;;;5001626;28;21009;-75
2020/12/10 02:08:07;;;;;;;106.75;51.70;;;1.10;1.00;;;;;;4986563;28;20227;-75
2020/12/10 02:10:33;;;;;;;100.57;50.55;;;1.10;1.00;;;;;;4998904;28;20298;-74
2020/12/10 02:13:00;;;;;;;110.47;52.50;;;1.10;1.00;;;;;;4987834;28;20230;-75
2020/12/10 02:15:26;;;;;;;112.45;49.88;;;1.10;1.00;;;;;;5003618;28;20254;-75
2020/12/10 02:17:54;;;;;;;110.57;54.70;;;1.00;1.00;;;;;;5005605;28;20671;-75
2020/12/10 02:20:21;;;;;;;112.78;55.15;;;1.00;1.00;;;;;;4996352;28;20740;-75
2020/12/10 02:22:57;;;;;;;114.55;53.80;;;1.00;1.00;;;;;;5002235;28;20242;-75
2020/12/10 02:25:23;;;;;;;112.10;56.05;;;1.10;1.00;;;;;;4987362;28;20652;-76
2020/12/10 02:27:50;;;;;;;104.72;54.10;;;1.10;1.00;;;;;;5003474;28;20219;-76
2020/12/10 02:30:16;;;;;;;110.57;52.75;;;1.10;1.00;;;;;;4986045;28;20613;-76
2020/12/10 02:32:42;;;;;;;102.50;52.03;;;1.10;1.00;;;;;;5002592;28;20231;-76
2020/12/10 02:35:08;;;;;;;116.13;53.38;;;1.00;1.00;;;;;;4986710;28;20298;-75
2020/12/10 02:37:34;;;;;;;114.72;53.28;;;1.00;1.00;;;;;;5003284;28;20221;-76
2020/12/10 02:40:01;;;;;;;114.93;52.78;;;0.90;1.00;;;;;;4992912;28;20237;-76
2020/12/10 02:42:28;;;;;;;122.30;54.65;;;0.90;1.00;;;;;;4998974;28;20325;-76
2020/12/10 02:44:55;;;;;;;107.97;50.00;;;0.90;1.00;;;;;;4989179;28;20237;-76
2020/12/10 02:47:21;;;;;;;112.13;51.05;;;1.00;1.00;;;;;;5004389;28;20219;-74
2020/12/10 02:49:47;;;;;;;101.57;51.40;;;1.00;1.00;;;;;;4988436;28;20309;-74
2020/12/10 02:52:13;;;;;;;109.60;50.78;;;1.00;1.00;;;;;;4999248;28;20310;-74
2020/12/10 02:54:39;;;;;;;107.95;51.22;;;1.00;1.00;;;;;;4990809;28;20740;-76
2020/12/10 02:57:06;;;;;;;116.32;53.35;;;1.00;1.00;;;;;;5002030;28;21133;-74
2020/12/10 02:59:32;;;;;;;108.47;52.60;;;1.00;1.00;;;;;;4995106;28;20273;-74
2020/12/10 03:01:59;;;;;;;107.72;51.95;;;1.00;1.00;;;;;;4998794;28;20239;-75
2020/12/10 03:04:25;;;;;;;119.82;54.33;;;1.00;1.00;;;;;;5003422;28;20231;-74
2020/12/10 03:06:51;;;;;;;106.20;52.35;;;1.00;1.00;;;;;;5000282;28;20292;-75
2020/12/10 03:09:17;;;;;;;113.68;54.33;;;1.00;1.00;;;;;;5005564;28;20269;-75
2020/12/10 03:11:43;;;;;;;98.35;48.97;;;1.00;1.00;;;;;;4998766;28;20234;-75
2020/12/10 03:14:10;;;;;;;97.78;49.45;;;1.00;1.00;;;;;;5008490;28;20712;-76
2020/12/10 03:16:36;;;;;;;108.53;50.45;;;0.90;1.00;;;;;;5001549;28;20236;-76
2020/12/10 03:19:03;;;;;;;107.22;53.80;;;0.90;1.00;;;;;;5008290;28;20218;-75
2020/12/10 03:21:29;;;;;;;110.38;52.30;;;0.90;1.00;;;;;;4999140;28;20234;-75
2020/12/10 03:23:56;;;;;;;101.63;50.72;;;0.90;1.00;;;;;;5008707;28;20231;-76
2020/12/10 03:26:23;;;;;;;103.15;50.15;;;1.00;1.00;;;;;;5005377;28;20230;-75
2020/12/10 03:28:49;;;;;;;105.82;53.83;;;1.00;1.00;;;;;;5010208;28;20649;-75
2020/12/10 03:31:52;;;;;;;107.88;49.97;;;1.00;1.00;;;;;;5000172;28;20231;-77
2020/12/10 03:34:21;;;;;;;104.47;53.90;;;1.00;1.00;;;;;;4999846;28;20227;-77
2020/12/10 03:36:50;;;;;;;103.00;51.10;;;1.00;1.00;;;;;;4985621;28;20688;-75
2020/12/10 03:39:17;;;;;;;112.43;53.72;;;1.00;1.00;;;;;;5000088;28;20224;-75
2020/12/10 03:41:45;;;;;;;98.85;50.83;;;1.00;1.00;;;;;;4989139;28;21067;-76
2020/12/10 03:44:11;;;;;;;114.45;50.58;;;0.90;1.00;;;;;;5002994;28;20737;-77
2020/12/10 03:46:39;;;;;;;98.40;47.80;;;0.90;1.00;;;;;;5002107;28;20250;-76
2020/12/10 03:49:05;;;;;;;100.32;51.83;;;0.90;1.00;;;;;;5012148;28;20231;-75
2020/12/10 03:51:31;;;;;;;102.47;51.17;;;0.90;1.00;;;;;;5009142;28;20301;-77
2020/12/10 03:53:57;;;;;;;102.88;50.65;;;0.90;1.00;;;;;;5006010;28;20238;-75
2020/12/10 03:56:24;;;;;;;110.85;50.17;;;0.90;1.00;;;;;;5008500;28;21086;-74
2020/12/10 03:58:50;;;;;;;107.00;50.38;;;0.90;1.00;;;;;;5005158;28;20962;-75
2020/12/10 04:01:17;;;;;;;124.65;56.25;;;0.90;1.00;;;;;;5007701;28;20223;-76
2020/12/10 04:03:44;;;;;;;107.22;52.35;;;1.00;1.00;;;;;;5003275;28;20787;-75
2020/12/10 04:06:11;;;;;;;95.43;48.90;;;1.00;1.00;;;;;;5010383;28;20237;-76
2020/12/10 04:08:37;;;;;;;106.85;49.35;;;1.00;1.00;;;;;;4986566;28;20266;-77
2020/12/10 04:11:04;;;;;;;97.63;50.03;;;1.00;1.00;;;;;;5005232;28;20330;-76
2020/12/10 04:13:30;;;;;;;108.25;48.78;;;1.00;1.00;;;;;;4986654;28;20318;-76
2020/12/10 04:15:56;;;;;;;101.85;54.38;;;0.90;1.00;;;;;;5006175;28;20466;-76
2020/12/10 04:18:22;;;;;;;104.72;51.13;;;0.90;1.00;;;;;;4992637;28;20561;-75
2020/12/10 04:20:49;;;;;;;104.13;50.22;;;0.90;1.00;;;;;;5034017;28;20231;-74
2020/12/10 04:23:15;;;;;;;105.50;52.33;;;0.90;1.00;;;;;;4994250;28;20292;-75
2020/12/10 04:25:42;;;;;;;108.25;50.70;;;0.90;1.00;;;;;;5008594;28;22334;-74
2020/12/10 04:28:08;;;;;;;102.45;49.92;;;0.90;1.00;;;;;;4983998;28;20227;-75
2020/12/10 04:30:34;;;;;;;103.85;49.38;;;1.00;1.00;;;;;;5001755;28;20234;-76
2020/12/10 04:33:01;;;;;;;101.40;48.60;;;0.90;1.00;;;;;;5004653;28;20239;-74
2020/12/10 04:35:27;;;;;;;105.93;48.35;;;0.90;1.00;;;;;;4983142;28;20313;-77
2020/12/10 04:37:54;;;;;;;100.57;50.40;;;0.90;1.00;;;;;;5004329;28;20237;-77
2020/12/10 04:40:20;;;;;;;105.20;52.15;;;0.90;1.00;;;;;;4984103;28;21143;-76
2020/12/10 04:42:47;;;;;;;106.07;51.58;;;0.80;1.00;;;;;;5006027;28;20256;-75
2020/12/10 04:45:14;;;;;;;102.43;50.28;;;0.90;1.00;;;;;;4979866;28;20318;-76
2020/12/10 04:47:41;;;;;;;99.30;49.75;;;0.90;1.00;;;;;;5006282;28;21032;-75
2020/12/10 04:50:15;;;;;;;124.85;54.45;;;0.90;1.00;;;;;;4986996;28;20325;-75
2020/12/10 04:52:43;;;;;;;106.60;56.22;;;1.00;1.00;;;;;;5007854;28;20240;-75
2020/12/10 04:55:10;;;;;;;101.68;51.75;;;1.00;1.00;;;;;;4991635;28;20245;-75
2020/12/10 04:57:39;;;;;;;103.55;51.92;;;1.00;1.00;;;;;;5002163;28;20254;-73
2020/12/10 05:00:06;;;;;;;112.32;51.47;;;1.00;1.00;;;;;;4980137;28;20304;-77
2020/12/10 05:02:32;;;;;;;104.30;51.67;;;1.00;1.00;;;;;;4999662;28;20235;-76
2020/12/10 05:04:58;;;;;;;106.03;50.10;;;1.00;1.00;;;;;;4983097;28;20243;-77
2020/12/10 05:07:37;;;;;;;107.63;50.03;;;1.00;1.00;;;;;;5006180;28;20711;-77
2020/12/10 05:10:03;;;;;;;106.28;50.35;;;1.00;1.00;;;;;;4989439;28;20679;-76
2020/12/10 05:12:30;;;;;;;109.75;52.38;;;0.90;1.00;;;;;;5003156;28;20235;-73
2020/12/10 05:14:57;;;;;;;113.90;49.58;;;0.90;1.00;;;;;;4993839;28;20772;-77
2020/12/10 05:17:23;;;;;;;105.82;52.00;;;0.80;1.00;;;;;;5001935;28;20239;-76
2020/12/10 05:19:56;;;;;;;106.43;50.47;;;0.80;1.00;;;;;;5000310;28;20654;-77
2020/12/10 05:22:22;;;;;;;107.13;51.55;;;0.90;1.00;;;;;;4993577;28;20311;-76
2020/12/10 05:24:59;;;;;;;112.65;49.10;;;0.90;1.00;;;;;;4999826;28;20270;-75
2020/12/10 05:27:25;;;;;;;101.63;46.72;;;0.80;1.00;;;;;;4985980;28;20248;-74
2020/12/10 05:29:53;;;;;;;104.72;48.05;;;0.80;1.00;;;;;;5000955;28;20233;-76
2020/12/10 05:32:34;;;;;;;104.88;51.60;;;0.80;1.00;;;;;;4983016;28;20314;-76
2020/12/10 05:35:17;;;;;;;110.93;51.58;;;0.80;1.00;;;;;;4998679;28;20237;-76
2020/12/10 05:37:43;;;;;;;104.72;49.17;;;0.90;1.00;;;;;;4983101;28;20618;-70
2020/12/10 05:40:09;;;;;;;107.72;48.63;;;0.90;1.00;;;;;;5003150;28;20310;-74
2020/12/10 05:42:37;;;;;;;104.80;49.70;;;0.90;1.00;;;;;;4986316;28;20340;-76
2020/12/10 05:45:14;;;;;;;104.65;49.75;;;0.90;1.00;;;;;;5001518;28;20353;-74
2020/12/10 05:47:44;;;;;;;108.70;47.95;;;0.90;1.00;;;;;;4992917;28;20310;-71
2020/12/10 05:50:13;;;;;;;98.85;48.05;;;0.90;1.00;;;;;;5004597;28;21096;-75
2020/12/10 05:52:44;;;;;;;105.97;47.25;;;0.90;1.00;;;;;;4988488;28;20334;-75
2020/12/10 05:55:11;;;;;;;109.13;49.22;;;0.80;1.00;;;;;;4970830;28;20223;-76
2020/12/10 05:57:41;;;;;;;103.15;48.17;;;0.90;1.00;;;;;;5002776;28;20294;-73
2020/12/10 06:00:07;;;;;;;110.25;50.55;;;0.90;1.00;;;;;;4988962;28;20697;-75
2020/12/10 06:02:35;;;;;;;95.53;46.88;;;0.90;1.00;;;;;;5006370;28;20317;-74
2020/12/10 06:05:02;;;;;;;103.95;47.83;;;1.00;1.00;;;;;;5001348;28;20775;-74
2020/12/10 06:07:28;;;;;;;107.80;48.30;;;1.00;1.00;;;;;;5009547;28;20247;-73
2020/12/10 06:09:55;;;;;;;92.88;46.15;;;1.00;1.00;;;;;;5004955;28;20227;-75
2020/12/10 06:12:24;;;;;;;93.80;47.33;;;1.00;1.00;;;;;;4995987;28;20768;-76
2020/12/10 06:14:52;;;;;;;101.32;49.75;;;1.10;1.00;;;;;;4991338;28;20226;-75
2020/12/10 06:17:18;;;;;;;94.05;48.95;;;1.20;1.00;;;;;;5003311;28;20219;-75
2020/12/10 06:19:45;;;;;;;96.28;46.55;;;1.00;1.00;;;;;;5001994;28;20237;-78
2020/12/10 06:22:25;;;;;;;96.55;44.35;;;0.90;1.00;;;;;;4989517;28;20768;-76
2020/12/10 06:24:53;;;;;;;90.93;43.40;;;1.00;1.00;;;;;;4999735;28;20220;-75
2020/12/10 06:27:27;;;;;;;104.20;52.35;;;0.90;1.00;;;;;;4926857;28;20252;-73
2020/12/10 06:30:12;;;;;;;104.20;48.17;;;0.90;1.00;;;;;;4994837;28;20259;-75
2020/12/10 06:32:44;;;;;;;106.68;50.55;;;0.90;1.00;;;;;;4986497;28;20229;-75
2020/12/10 06:35:29;;;;;;;98.22;46.28;;;0.90;1.00;;;;;;4994714;28;20314;-74
2020/12/10 06:37:55;;;;;;;104.35;49.25;;;0.80;1.00;;;;;;4974227;28;20230;-75
2020/12/10 06:40:30;;;;;;;101.97;50.97;;;0.90;1.00;;;;;;4995987;28;20684;-76
2020/12/10 06:42:57;;;;;;;96.80;46.97;;;1.00;1.00;;;;;;4978032;28;20681;-75
2020/12/10 06:45:24;;;;;;;99.07;49.70;;;1.00;1.00;;;;;;4996512;28;20306;-76
2020/12/10 06:47:50;;;;;;;110.82;51.75;;;1.00;1.00;;;;;;4983482;28;20413;-74
2020/12/10 06:50:24;;;;;;;106.75;50.10;;;1.10;1.00;;;;;;5001746;28;20225;-77
2020/12/10 06:53:11;;;;;;;97.72;47.95;;;1.20;1.00;;;;;;4994247;28;20239;-75
2020/12/10 06:56:01;;;;;;;122.57;58.50;;;1.10;1.00;;;;;;4997470;28;20223;-76
2020/12/10 06:58:51;;;;;;;95.80;46.60;;;1.30;1.00;;;;;;4981888;28;20219;-74
2020/12/10 07:01:25;;;;;;;96.72;45.97;;;1.40;1.00;;;;;;4997661;28;20211;-76
2020/12/10 07:03:54;;;;;;;101.65;50.47;;;1.50;1.00;;;;;;4981050;28;20250;-75
2020/12/10 07:06:21;;;;;;;106.00;46.65;;;1.50;1.00;;;;;;4999979;28;20973;-74
2020/12/10 07:09:06;;;;;;;114.65;53.22;;;1.40;1.00;;;;;;4981667;28;20229;-76
2020/12/10 07:11:34;;;;;;;105.70;51.65;;;1.40;1.00;;;;;;4994928;28;20251;-75
2020/12/10 07:14:01;;;;;;;91.95;45.25;;;1.60;1.00;;;;;;4980817;28;20345;-74
2020/12/10 07:16:30;;;;;;;102.22;49.75;;;1.60;1.00;;;;;;5005464;28;20219;-76
2020/12/10 07:18:57;;;;;;;95.63;47.25;;;1.60;1.00;;;;;;4982706;28;21501;-75
2020/12/10 07:21:23;;;;;;;104.28;48.08;;;1.60;1.00;;;;;;5000578;28;20223;-77
2020/12/10 07:23:49;;;;;;;111.43;49.45;;;1.60;1.00;;;;;;4976201;28;20400;-76
2020/12/10 07:26:17;;;;;;;102.43;48.15;;;1.70;1.00;;;;;;5008723;28;20274;-76
2020/12/10 07:28:45;;;;;;;108.63;48.92;;;1.80;1.00;;;;;;5004855;28;20309;-73
2020/12/10 07:31:16;;;;;;;108.35;48.97;;;1.60;1.00;;;;;;5003744;28;20230;-75
2020/12/10 07:33:43;;;;;;;94.20;47.40;;;1.40;1.00;;;;;;5002174;28;20298;-71
2020/12/10 07:36:09;;;;;;;98.25;47.28;;;1.40;1.00;;;;;;4980054;28;20305;-74
2020/12/10 07:38:35;;;;;;;103.47;48.45;;;1.50;1.00;;;;;;5010861;28;20250;-77
2020/12/10 07:41:02;;;;;;;108.75;55.67;;;1.50;1.00;;;;;;5001812;28;20282;-72
2020/12/10 07:43:29;;;;;;;116.60;50.33;;;1.50;1.00;;;;;;5027679;28;20243;-75
2020/12/10 07:45:55;;;;;;;106.18;48.28;;;1.40;1.00;;;;;;4978761;28;20227;-75
2020/12/10 07:48:22;;;;;;;104.00;47.92;;;1.30;1.00;;;;;;5010103;28;20258;-76
2020/12/10 07:50:48;;;;;;;102.40;47.28;;;1.30;1.00;;;;;;4985799;28;20231;-75
2020/12/10 07:53:15;;;;;;;106.72;47.75;;;1.30;1.00;;;;;;5010453;28;20310;-74
2020/12/10 07:55:50;;;;;;;93.78;47.45;;;1.40;1.00;;;;;;4990850;28;20222;-76
2020/12/10 07:58:30;;;;;;;95.32;44.03;;;1.30;1.00;;;;;;5007431;28;20231;-74
2020/12/10 08:01:03;;;;;;;95.25;45.53;;;1.20;1.00;;;;;;4986605;28;20219;-76
2020/12/10 08:03:43;;;;;;;95.28;45.03;;;1.10;1.00;;;;;;5007174;28;20297;-74
2020/12/10 08:06:10;;;;;;;89.38;40.88;;;1.20;1.00;;;;;;4985868;28;20251;-77
2020/12/10 08:08:39;;;;;;;81.88;42.28;;;1.20;1.00;;;;;;5006024;28;20231;-76
2020/12/10 08:11:09;;;;;;;76.10;39.58;;;1.10;1.00;;;;;;4983286;28;20219;-76
2020/12/10 08:13:36;;;;;;;78.85;37.17;;;1.20;1.00;;;;;;5001440;28;20227;-77
2020/12/10 08:16:09;;;;;;;78.80;39.10;;;1.30;1.00;;;;;;4982986;28;22766;-76
2020/12/10 08:18:35;;;;;;;79.68;40.03;;;1.50;1.00;;;;;;5009574;28;20223;-77
2020/12/10 08:21:05;;;;;;;81.95;43.30;;;1.60;1.00;;;;;;4982443;28;20317;-77
2020/12/10 08:23:44;;;;;;;78.55;40.78;;;1.50;1.00;;;;;;5005994;28;21511;-76
2020/12/10 08:26:12;;;;;;;82.18;40.25;;;1.50;1.00;;;;;;4989080;28;21162;-73
2020/12/10 08:28:39;;;;;;;84.60;42.85;;;1.40;1.00;;;;;;4996886;28;20231;-75
2020/12/10 08:31:06;;;;;;;84.13;43.15;;;1.30;1.00;;;;;;5008129;28;20238;-75
2020/12/10 08:33:36;;;;;;;78.97;43.20;;;1.20;1.00;;;;;;4983002;28;20359;-76
2020/12/10 08:36:04;;;;;;;82.70;44.22;;;1.10;1.00;;;;;;5003374;28;20222;-77
2020/12/10 08:38:30;;;;;;;80.57;39.90;;;1.00;1.00;;;;;;4986491;28;20309;-78
2020/12/10 08:40:58;;;;;;;80.68;38.63;;;1.00;1.00;;;;;;5001952;28;20222;-74
2020/12/10 08:43:25;;;;;;;94.20;40.75;;;1.10;1.00;;;;;;4995434;28;21092;-77
2020/12/10 08:45:51;;;;;;;96.30;44.28;;;1.10;1.00;;;;;;5003618;28;20226;-76
2020/12/10 08:48:25;;;;;;;90.38;42.38;;;1.20;1.00;;;;;;4992180;28;20961;-77
2020/12/10 08:50:54;;;;;;;93.10;44.20;;;1.30;1.00;;;;;;5004235;28;20788;-74
2020/12/10 08:53:21;;;;;;;84.82;43.85;;;1.50;1.00;;;;;;4985861;28;20300;-73
2020/12/10 08:55:49;;;;;;;96.43;44.60;;;1.80;1.00;;;;;;5009424;28;20867;-77
2020/12/10 08:58:18;;;;;;;85.20;43.78;;;1.90;1.00;;;;;;4987509;28;21410;-76
2020/12/10 09:00:45;;;;;;;93.25;44.40;;;1.90;1.00;;;;;;5006436;28;20231;-76
2020/12/10 09:03:11;;;;;;;99.55;43.28;;;1.80;1.00;;;;;;4980960;28;20240;-76
2020/12/10 09:05:37;;;;;;;108.85;46.90;;;1.80;1.00;;;;;;5007738;28;20233;-76
2020/12/10 09:08:04;;;;;;;93.30;44.45;;;1.90;1.00;;;;;;4987712;28;20226;-75
2020/12/10 09:10:31;;;;;;;98.65;45.90;;;1.90;1.00;;;;;;5008821;28;20306;-76
2020/12/10 09:12:58;;;;;;;100.10;47.58;;;1.80;1.00;;;;;;4984753;28;20736;-76
2020/12/10 09:15:25;;;;;;;107.32;47.47;;;1.80;1.00;;;;;;5007375;28;20223;-76
2020/12/10 09:17:51;;;;;;;103.88;44.80;;;1.90;1.00;;;;;;5005753;28;20361;-76
2020/12/10 09:20:18;;;;;;;101.90;44.58;;;1.70;1.00;;;;;;4978227;28;20752;-76
2020/12/10 09:22:44;;;;;;;101.10;48.47;;;1.80;1.00;;;;;;5007780;28;20239;-77
2020/12/10 09:25:12;;;;;;;98.32;47.05;;;1.70;1.00;;;;;;4984248;28;21109;-73
2020/12/10 09:27:38;;;;;;;97.25;44.88;;;1.60;1.00;;;;;;5009777;28;20257;-77
2020/12/10 09:30:07;;;;;;;89.43;43.47;;;1.70;1.00;;;;;;4981600;28;20285;-76
2020/12/10 09:32:34;;;;;;;88.22;44.40;;;1.70;1.00;;;;;;5009329;28;20226;-77
2020/12/10 09:35:01;;;;;;;94.30;43.63;;;1.80;1.00;;;;;;4992922;28;21124;-76
2020/12/10 09:37:27;;;;;;;87.00;41.10;;;1.80;1.00;;;;;;5006406;28;20223;-76
2020/12/10 09:39:54;;;;;;;84.65;43.50;;;2.00;1.00;;;;;;4983754;28;20349;-77
2020/12/10 09:42:21;;;;;;;81.07;41.30;;;2.20;1.00;;;;;;5003502;28;20325;-77
2020/12/10 09:44:47;;;;;;;83.47;38.20;;;2.00;1.00;;;;;;4993470;28;20219;-76
2020/12/10 09:47:14;;;;;;;86.32;42.10;;;1.70;1.00;;;;;;5006043;28;20314;-76
2020/12/10 09:49:40;;;;;;;76.55;38.20;;;1.90;1.00;;;;;;5003184;28;20713;-75
2020/12/10 09:52:07;;;;;;;74.97;38.92;;;1.90;1.00;;;;;;5021971;28;20278;-75
2020/12/10 09:54:50;;;;;;;80.72;40.78;;;1.50;1.00;;;;;;5003943;28;20235;-75
2020/12/10 09:57:29;;;;;;;74.78;36.83;;;1.40;1.00;;;;;;5022979;28;20233;-73
2020/12/10 09:59:56;;;;;;;79.93;37.55;;;1.40;1.00;;;;;;4995948;28;20996;-75
2020/12/10 10:02:23;;;;;;;78.32;39.22;;;1.30;1.00;;;;;;5016447;28;20282;-76
2020/12/10 10:04:51;;;;;;;78.20;39.33;;;1.20;1.00;;;;;;5008528;28;20274;-77
2020/12/10 10:07:18;;;;;;;84.90;42.97;;;1.30;1.00;;;;;;4989752;28;20223;-73
2020/12/10 10:09:45;;;;;;;75.53;36.90;;;1.20;1.00;;;;;;5004462;28;20235;-76
2020/12/10 10:12:11;;;;;;;84.75;40.47;;;1.20;1.00;;;;;;4978028;28;20669;-75
2020/12/10 10:14:37;;;;;;;84.32;38.17;;;1.00;1.00;;;;;;5003139;28;20235;-74
2020/12/10 10:17:05;;;;;;;96.03;42.03;;;1.10;1.00;;;;;;4987796;28;20224;-75
2020/12/10 10:19:32;;;;;;;78.97;37.63;;;1.10;1.00;;;;;;5006424;28;20231;-76
2020/12/10 10:21:59;;;;;;;82.15;40.45;;;1.20;1.00;;;;;;4982073;28;20223;-76
2020/12/10 10:24:25;;;;;;;74.18;37.33;;;1.30;1.00;;;;;;5003667;28;20917;-77
2020/12/10 10:26:52;;;;;;;74.95;40.67;;;1.40;1.00;;;;;;4987015;28;20226;-75
2020/12/10 10:29:20;;;;;;;79.80;38.28;;;1.30;1.00;;;;;;4998327;28;20227;-75
2020/12/10 10:31:47;;;;;;;93.25;44.33;;;1.30;1.00;;;;;;4987436;28;20973;-77
2020/12/10 10:34:14;;;;;;;82.55;43.42;;;1.30;1.00;;;;;;5008695;28;20262;-75
2020/12/10 10:36:41;;;;;;;83.30;42.70;;;1.30;1.00;;;;;;4981422;28;20314;-72
2020/12/10 10:39:07;;;;;;;78.80;43.08;;;1.40;1.00;;;;;;5002233;28;20211;-76
2020/12/10 10:41:40;;;;;;;95.00;41.25;;;1.50;1.00;;;;;;4952508;28;20227;-75
2020/12/10 10:44:06;;;;;;;82.80;41.50;;;1.50;1.00;;;;;;4997322;28;20238;-74
2020/12/10 10:46:32;;;;;;;92.72;40.33;;;1.40;1.00;;;;;;4986256;28;20723;-76
2020/12/10 10:48:58;;;;;;;82.60;40.30;;;1.40;1.00;;;;;;5007357;28;20219;-74
2020/12/10 10:51:26;;;;;;;75.13;37.97;;;1.40;1.00;;;;;;4985580;28;20231;-75
2020/12/10 10:53:52;;;;;;;75.00;37.10;;;1.30;1.00;;;;;;5005103;28;20248;-74
2020/12/10 10:56:20;;;;;;;82.30;38.55;;;1.30;1.00;;;;;;4996581;28;20973;-72
2020/12/10 10:58:47;;;;;;;74.07;36.60;;;1.30;1.00;;;;;;5018711;28;20213;-75
2020/12/10 11:01:13;;;;;;;77.97;38.53;;;1.40;1.00;;;;;;5032939;28;20238;-73
2020/12/10 11:03:40;;;;;;;71.00;36.40;;;1.30;1.00;;;;;;5002060;28;20238;-79
2020/12/10 11:06:07;;;;;;;86.55;39.50;;;1.30;1.00;;;;;;5012901;28;20237;-75
2020/12/10 11:08:34;;;;;;;83.30;38.50;;;1.30;1.00;;;;;;4989217;28;20305;-73
2020/12/10 11:11:00;;;;;;;77.13;36.92;;;1.30;1.00;;;;;;5005914;28;20314;-72
2020/12/10 11:13:26;;;;;;;69.07;35.60;;;1.20;1.00;;;;;;4997183;28;20322;-75
2020/12/10 11:15:53;;;;;;;82.30;37.65;;;1.10;1.00;;;;;;4998935;28;20303;-75
2020/12/10 11:18:19;;;;;;;75.75;38.67;;;1.20;1.00;;;;;;4992176;28;20262;-74
2020/12/10 11:20:45;;;;;;;82.38;40.70;;;1.30;1.00;;;;;;5011696;28;20313;-74
2020/12/10 11:23:13;;;;;;;72.35;34.55;;;1.40;1.00;;;;;;4947473;28;20237;-74
2020/12/10 11:25:40;;;;;;;81.32;37.42;;;1.40;1.00;;;;;;5005415;28;20728;-76
2020/12/10 11:28:07;;;;;;;69.72;35.03;;;1.40;1.00;;;;;;4982771;28;20314;-75
2020/12/10 11:30:33;;;;;;;79.57;36.90;;;1.40;1.00;;;;;;5007417;28;20223;-74
2020/12/10 11:33:02;;;;;;;75.28;35.30;;;1.30;1.00;;;;;;4988462;28;20842;-72
2020/12/10 11:35:28;;;;;;;82.38;35.22;;;1.20;1.00;;;;;;5028430;28;21653;-73
2020/12/10 11:37:55;;;;;;;77.78;36.50;;;1.10;1.00;;;;;;5007363;28;20237;-74
2020/12/10 11:40:23;;;;;;;76.70;37.40;;;1.10;1.00;;;;;;5031568;28;20199;-75
2020/12/10 11:42:52;;;;;;;69.57;33.95;;;1.20;1.00;;;;;;5028891;28;20901;-74
2020/12/10 11:45:19;;;;;;;79.60;36.50;;;1.20;1.00;;;;;;4983090;28;20760;-75
2020/12/10 11:47:47;;;;;;;69.50;35.63;;;1.20;1.00;;;;;;5003742;28;20293;-75
2020/12/10 11:50:19;;;;;;;66.25;32.15;;;1.20;1.00;;;;;;5009846;28;20219;-77
2020/12/10 11:52:46;;;;;;;81.32;38.90;;;1.30;1.00;;;;;;5011047;28;21181;-75
2020/12/10 11:55:13;;;;;;;70.22;34.33;;;1.20;1.00;;;;;;4991582;28;20291;-76
2020/12/10 11:57:39;;;;;;;71.57;31.88;;;1.20;1.00;;;;;;5006972;28;20285;-75
2020/12/10 12:00:07;;;;;;;68.75;34.30;;;1.20;1.00;;;;;;5002802;28;20231;-75
2020/12/10 12:02:33;;;;;;;71.65;33.72;;;1.20;1.00;;;;;;5005088;28;20237;-76
2020/12/10 12:05:00;;;;;;;66.72;33.40;;;1.20;1.00;;;;;;5016490;28;20275;-80
2020/12/10 12:07:26;;;;;;;60.60;32.50;;;1.20;1.00;;;;;;5001586;28;20263;-76
2020/12/10 12:09:52;;;;;;;74.63;33.97;;;1.10;1.00;;;;;;5009594;28;20222;-77
2020/12/10 12:12:18;;;;;;;62.38;32.40;;;1.10;1.00;;;;;;4996359;28;20258;-73
2020/12/10 12:14:45;;;;;;;61.78;31.25;;;1.10;1.00;;;;;;5009502;28;20634;-75
2020/12/10 12:17:12;;;;;;;66.80;34.30;;;1.00;1.00;;;;;;4998619;28;20223;-75
2020/12/10 12:19:38;;;;;;;71.03;33.67;;;1.00;1.00;;;;;;5012573;28;20255;-75
2020/12/10 12:22:04;;;;;;;72.00;33.47;;;1.00;1.00;;;;;;4996378;28;20292;-75
2020/12/10 12:24:31;;;;;;;78.85;38.17;;;1.00;1.00;;;;;;5011221;28;20237;-75
2020/12/10 12:26:57;;;;;;;62.70;31.83;;;1.00;1.00;;;;;;4998424;28;20254;-75
2020/12/10 12:29:23;;;;;;;63.63;30.02;;;1.00;1.00;;;;;;5008837;28;20286;-75
2020/12/10 12:31:49;;;;;;;58.35;31.10;;;1.00;1.00;;;;;;4994851;28;20218;-75
2020/12/10 12:34:16;;;;;;;62.72;31.67;;;1.00;1.00;;;;;;5005681;28;21084;-74
2020/12/10 12:36:44;;;;;;;68.72;30.73;;;1.00;1.00;;;;;;4990953;28;21129;-74
2020/12/10 12:39:13;;;;;;;60.03;31.70;;;1.00;1.00;;;;;;5007231;28;20314;-75
2020/12/10 12:41:40;;;;;;;69.70;33.17;;;1.00;1.00;;;;;;5007422;28;20681;-75
2020/12/10 12:44:07;;;;;;;66.55;31.42;;;0.90;1.00;;;;;;4997801;28;20326;-74